Terminal Aerodrome Forecast
Issued by NWS Norman, OK

Home | Current Version | Previous Version | Text Only | Print | Product List | Glossary On
Versions: 1 2 3 4 5 6 7 8 9 10 11 12 13 14 15 16 17 18 19 20 21 22 23 24 25 26
200
FTUS44 KOUN 121127
TAFOKC
TAF
KOKC 121127Z 1212/1312 36005KT P6SM FEW200
     FM121400 36012KT P6SM SCT200
     FM121600 01014G21KT P6SM SCT200
     FM130000 03011KT P6SM SCT150=

USA.gov is the U.S. government's official web portal to all federal, state and local government web resources and services.